sensor_id;sensor_type;location;lat;lon;timestamp;temperature;humidity
26278;DHT22;14000;52.056;8.510;2023-08-08T00:01:41;12.80;99.90
26278;DHT22;14000;52.056;8.510;2023-08-08T00:04:10;12.80;99.90
26278;DHT22;14000;52.056;8.510;2023-08-08T00:06:36;12.80;99.90
26278;DHT22;14000;52.056;8.510;2023-08-08T00:09:02;12.70;99.90
26278;DHT22;14000;52.056;8.510;2023-08-08T00:11:29;12.80;99.90
26278;DHT22;14000;52.056;8.510;2023-08-08T00:13:55;12.80;99.90
26278;DHT22;14000;52.056;8.510;2023-08-08T00:16:21;12.90;99.90
26278;DHT22;14000;52.056;8.510;2023-08-08T00:18:46;12.80;99.90
26278;DHT22;14000;52.056;8.510;2023-08-08T00:21:12;12.80;99.90
26278;DHT22;14000;52.056;8.510;2023-08-08T00:23:38;12.90;99.90
26278;DHT22;14000;52.056;8.510;2023-08-08T00:26:03;12.80;99.90
26278;DHT22;14000;52.056;8.510;2023-08-08T00:28:29;12.90;99.90
26278;DHT22;14000;52.056;8.510;2023-08-08T00:30:55;12.90;99.90
26278;DHT22;14000;52.056;8.510;2023-08-08T00:33:21;12.90;99.90
26278;DHT22;14000;52.056;8.510;2023-08-08T00:35:46;12.90;99.90
26278;DHT22;14000;52.056;8.510;2023-08-08T00:38:12;12.90;99.90
26278;DHT22;14000;52.056;8.510;2023-08-08T00:40:37;12.90;99.90
26278;DHT22;14000;52.056;8.510;2023-08-08T00:43:03;12.90;99.90
26278;DHT22;14000;52.056;8.510;2023-08-08T00:45:29;12.90;99.90
26278;DHT22;14000;52.056;8.510;2023-08-08T00:47:54;13.00;99.90
26278;DHT22;14000;52.056;8.510;2023-08-08T00:50:20;13.00;99.90
26278;DHT22;14000;52.056;8.510;2023-08-08T00:52:47;13.00;99.90
26278;DHT22;14000;52.056;8.510;2023-08-08T00:55:13;13.00;99.90
26278;DHT22;14000;52.056;8.510;2023-08-08T00:57:40;13.00;99.90
26278;DHT22;14000;52.056;8.510;2023-08-08T01:00:07;13.00;99.90
26278;DHT22;14000;52.056;8.510;2023-08-08T01:02:35;13.10;99.90
26278;DHT22;14000;52.056;8.510;2023-08-08T01:05:01;13.10;99.90
26278;DHT22;14000;52.056;8.510;2023-08-08T01:10:16;13.10;99.90
26278;DHT22;14000;52.056;8.510;2023-08-08T01:12:45;13.10;99.90
26278;DHT22;14000;52.056;8.510;2023-08-08T01:15:12;13.20;99.90
26278;DHT22;14000;52.056;8.510;2023-08-08T01:17:39;13.10;99.90
26278;DHT22;14000;52.056;8.510;2023-08-08T01:20:06;13.20;99.90
26278;DHT22;14000;52.056;8.510;2023-08-08T01:22:39;13.20;99.90
26278;DHT22;14000;52.056;8.510;2023-08-08T01:25:08;13.10;99.90
26278;DHT22;14000;52.056;8.510;2023-08-08T01:27:35;13.20;99.90
26278;DHT22;14000;52.056;8.510;2023-08-08T01:30:00;13.20;99.90
26278;DHT22;14000;52.056;8.510;2023-08-08T01:32:26;13.30;99.90
26278;DHT22;14000;52.056;8.510;2023-08-08T01:34:52;13.30;99.90
26278;DHT22;14000;52.056;8.510;2023-08-08T01:37:20;13.40;99.90
26278;DHT22;14000;52.056;8.510;2023-08-08T01:39:48;13.30;99.90
26278;DHT22;14000;52.056;8.510;2023-08-08T01:42:16;13.30;99.90
26278;DHT22;14000;52.056;8.510;2023-08-08T01:44:43;13.30;99.90
26278;DHT22;14000;52.056;8.510;2023-08-08T01:47:09;13.40;99.90
26278;DHT22;14000;52.056;8.510;2023-08-08T01:49:35;13.40;99.90
26278;DHT22;14000;52.056;8.510;2023-08-08T01:52:00;13.40;99.90
26278;DHT22;14000;52.056;8.510;2023-08-08T01:54:26;13.40;99.90
26278;DHT22;14000;52.056;8.510;2023-08-08T01:56:52;13.40;99.90
26278;DHT22;14000;52.056;8.510;2023-08-08T01:59:17;13.50;99.90
26278;DHT22;14000;52.056;8.510;2023-08-08T02:01:43;13.50;99.90
26278;DHT22;14000;52.056;8.510;2023-08-08T02:04:08;13.50;99.90
26278;DHT22;14000;52.056;8.510;2023-08-08T02:06:34;13.50;99.90
26278;DHT22;14000;52.056;8.510;2023-08-08T02:08:59;13.50;99.90
26278;DHT22;14000;52.056;8.510;2023-08-08T02:11:25;13.50;99.90
26278;DHT22;14000;52.056;8.510;2023-08-08T02:13:51;13.50;99.90
26278;DHT22;14000;52.056;8.510;2023-08-08T02:16:16;13.40;99.90
26278;DHT22;14000;52.056;8.510;2023-08-08T02:18:42;13.40;99.90
26278;DHT22;14000;52.056;8.510;2023-08-08T02:21:08;13.50;99.90
26278;DHT22;14000;52.056;8.510;2023-08-08T02:23:33;13.50;99.90
26278;DHT22;14000;52.056;8.510;2023-08-08T02:25:59;13.50;99.90
26278;DHT22;14000;52.056;8.510;2023-08-08T02:28:25;13.50;99.90
26278;DHT22;14000;52.056;8.510;2023-08-08T02:30:50;13.50;99.90
26278;DHT22;14000;52.056;8.510;2023-08-08T02:33:16;13.50;99.90
26278;DHT22;14000;52.056;8.510;2023-08-08T02:35:42;13.50;99.90
26278;DHT22;14000;52.056;8.510;2023-08-08T02:38:08;13.50;99.90
26278;DHT22;14000;52.056;8.510;2023-08-08T02:40:33;13.50;99.90
26278;DHT22;14000;52.056;8.510;2023-08-08T02:42:59;13.50;99.90
26278;DHT22;14000;52.056;8.510;2023-08-08T02:45:24;13.40;99.90
26278;DHT22;14000;52.056;8.510;2023-08-08T02:47:50;13.40;99.90
26278;DHT22;14000;52.056;8.510;2023-08-08T02:50:16;13.30;99.90
26278;DHT22;14000;52.056;8.510;2023-08-08T02:52:41;13.40;99.90
26278;DHT22;14000;52.056;8.510;2023-08-08T02:55:07;13.40;99.90
26278;DHT22;14000;52.056;8.510;2023-08-08T02:57:33;13.30;99.90
26278;DHT22;14000;52.056;8.510;2023-08-08T02:59:58;13.30;99.90
26278;DHT22;14000;52.056;8.510;2023-08-08T03:02:24;13.20;99.90
26278;DHT22;14000;52.056;8.510;2023-08-08T03:04:49;13.30;99.90
26278;DHT22;14000;52.056;8.510;2023-08-08T03:07:15;13.20;99.90
26278;DHT22;14000;52.056;8.510;2023-08-08T03:09:41;13.10;99.90
26278;DHT22;14000;52.056;8.510;2023-08-08T03:12:07;13.20;99.90
26278;DHT22;14000;52.056;8.510;2023-08-08T03:14:33;13.20;99.90
26278;DHT22;14000;52.056;8.510;2023-08-08T03:16:59;13.20;99.90
26278;DHT22;14000;52.056;8.510;2023-08-08T03:19:25;13.20;99.90
26278;DHT22;14000;52.056;8.510;2023-08-08T03:21:50;13.20;99.90
26278;DHT22;14000;52.056;8.510;2023-08-08T03:24:16;13.20;99.90
26278;DHT22;14000;52.056;8.510;2023-08-08T03:26:41;13.20;99.90
26278;DHT22;14000;52.056;8.510;2023-08-08T03:29:07;13.20;99.90
26278;DHT22;14000;52.056;8.510;2023-08-08T03:31:36;13.20;99.90
26278;DHT22;14000;52.056;8.510;2023-08-08T03:34:01;13.20;99.90
26278;DHT22;14000;52.056;8.510;2023-08-08T03:36:27;13.20;99.90
26278;DHT22;14000;52.056;8.510;2023-08-08T03:38:53;13.20;99.90
26278;DHT22;14000;52.056;8.510;2023-08-08T03:41:18;13.10;99.90
26278;DHT22;14000;52.056;8.510;2023-08-08T03:43:44;13.10;99.90
26278;DHT22;14000;52.056;8.510;2023-08-08T03:46:09;13.10;99.90
26278;DHT22;14000;52.056;8.510;2023-08-08T03:48:37;13.10;99.90
26278;DHT22;14000;52.056;8.510;2023-08-08T03:51:03;13.10;99.90
26278;DHT22;14000;52.056;8.510;2023-08-08T03:53:28;13.10;99.90
26278;DHT22;14000;52.056;8.510;2023-08-08T03:55:54;13.10;99.90
26278;DHT22;14000;52.056;8.510;2023-08-08T03:58:20;13.00;99.90
26278;DHT22;14000;52.056;8.510;2023-08-08T04:00:46;13.10;99.90
26278;DHT22;14000;52.056;8.510;2023-08-08T04:03:15;13.00;99.90
26278;DHT22;14000;52.056;8.510;2023-08-08T04:05:41;13.00;99.90
26278;DHT22;14000;52.056;8.510;2023-08-08T04:08:07;13.10;99.90
26278;DHT22;14000;52.056;8.510;2023-08-08T04:10:33;13.10;99.90
26278;DHT22;14000;52.056;8.510;2023-08-08T04:12:58;13.00;99.90
26278;DHT22;14000;52.056;8.510;2023-08-08T04:15:24;13.00;99.90
26278;DHT22;14000;52.056;8.510;2023-08-08T04:17:49;13.10;99.90
26278;DHT22;14000;52.056;8.510;2023-08-08T04:20:15;13.10;99.90
26278;DHT22;14000;52.056;8.510;2023-08-08T04:22:41;13.10;99.90
26278;DHT22;14000;52.056;8.510;2023-08-08T04:25:07;13.10;99.90
26278;DHT22;14000;52.056;8.510;2023-08-08T04:27:33;13.10;99.90
26278;DHT22;14000;52.056;8.510;2023-08-08T04:29:58;13.10;99.90
26278;DHT22;14000;52.056;8.510;2023-08-08T04:32:24;13.20;99.90
26278;DHT22;14000;52.056;8.510;2023-08-08T04:34:50;13.20;99.90
26278;DHT22;14000;52.056;8.510;2023-08-08T04:37:15;13.20;99.90
26278;DHT22;14000;52.056;8.510;2023-08-08T04:39:41;13.20;99.90
26278;DHT22;14000;52.056;8.510;2023-08-08T04:42:06;13.20;99.90
26278;DHT22;14000;52.056;8.510;2023-08-08T04:44:32;13.30;99.90
26278;DHT22;14000;52.056;8.510;2023-08-08T04:46:58;13.20;99.90
26278;DHT22;14000;52.056;8.510;2023-08-08T04:49:23;13.30;99.90
26278;DHT22;14000;52.056;8.510;2023-08-08T04:51:49;13.30;99.90
26278;DHT22;14000;52.056;8.510;2023-08-08T04:54:14;13.30;99.90
26278;DHT22;14000;52.056;8.510;2023-08-08T04:56:40;13.40;99.90
26278;DHT22;14000;52.056;8.510;2023-08-08T04:59:05;13.40;99.90
26278;DHT22;14000;52.056;8.510;2023-08-08T05:01:31;13.40;99.90
26278;DHT22;14000;52.056;8.510;2023-08-08T05:03:57;13.40;99.90
26278;DHT22;14000;52.056;8.510;2023-08-08T05:06:22;13.50;99.90
26278;DHT22;14000;52.056;8.510;2023-08-08T05:08:49;13.50;99.90
26278;DHT22;14000;52.056;8.510;2023-08-08T05:11:15;13.60;99.90
26278;DHT22;14000;52.056;8.510;2023-08-08T05:13:41;13.60;99.90
26278;DHT22;14000;52.056;8.510;2023-08-08T05:16:08;13.60;99.90
26278;DHT22;14000;52.056;8.510;2023-08-08T05:18:33;13.60;99.90
26278;DHT22;14000;52.056;8.510;2023-08-08T05:20:59;13.60;99.90
26278;DHT22;14000;52.056;8.510;2023-08-08T05:23:25;13.60;99.90
26278;DHT22;14000;52.056;8.510;2023-08-08T05:25:50;13.70;99.90
26278;DHT22;14000;52.056;8.510;2023-08-08T05:28:16;13.70;99.90
26278;DHT22;14000;52.056;8.510;2023-08-08T05:30:42;13.70;99.90
26278;DHT22;14000;52.056;8.510;2023-08-08T05:33:07;13.80;99.90
26278;DHT22;14000;52.056;8.510;2023-08-08T05:35:33;13.80;99.90
26278;DHT22;14000;52.056;8.510;2023-08-08T05:37:58;13.80;99.90
26278;DHT22;14000;52.056;8.510;2023-08-08T05:40:24;13.80;99.90
26278;DHT22;14000;52.056;8.510;2023-08-08T05:42:49;13.80;99.90
26278;DHT22;14000;52.056;8.510;2023-08-08T05:45:15;13.70;99.90
26278;DHT22;14000;52.056;8.510;2023-08-08T05:47:41;13.80;99.90
26278;DHT22;14000;52.056;8.510;2023-08-08T05:50:07;13.80;99.90
26278;DHT22;14000;52.056;8.510;2023-08-08T05:52:32;13.80;99.90
26278;DHT22;14000;52.056;8.510;2023-08-08T05:54:58;13.90;99.90
26278;DHT22;14000;52.056;8.510;2023-08-08T05:57:25;14.00;99.90
26278;DHT22;14000;52.056;8.510;2023-08-08T05:59:51;14.00;99.90
26278;DHT22;14000;52.056;8.510;2023-08-08T06:02:17;14.00;99.90
26278;DHT22;14000;52.056;8.510;2023-08-08T06:04:43;14.10;99.90
26278;DHT22;14000;52.056;8.510;2023-08-08T06:07:08;14.10;99.90
26278;DHT22;14000;52.056;8.510;2023-08-08T06:09:35;14.30;99.90
26278;DHT22;14000;52.056;8.510;2023-08-08T06:12:03;14.30;99.90
26278;DHT22;14000;52.056;8.510;2023-08-08T06:14:28;14.40;99.90
26278;DHT22;14000;52.056;8.510;2023-08-08T06:16:54;14.50;99.90
26278;DHT22;14000;52.056;8.510;2023-08-08T06:19:19;14.60;99.90
26278;DHT22;14000;52.056;8.510;2023-08-08T06:21:46;14.70;99.90
26278;DHT22;14000;52.056;8.510;2023-08-08T06:24:11;14.60;99.90
26278;DHT22;14000;52.056;8.510;2023-08-08T06:26:37;14.70;99.90
26278;DHT22;14000;52.056;8.510;2023-08-08T06:29:03;14.60;99.90
26278;DHT22;14000;52.056;8.510;2023-08-08T06:31:29;14.60;99.90
26278;DHT22;14000;52.056;8.510;2023-08-08T06:33:55;14.60;99.90
26278;DHT22;14000;52.056;8.510;2023-08-08T06:36:21;14.60;99.90
26278;DHT22;14000;52.056;8.510;2023-08-08T06:38:46;14.60;99.90
26278;DHT22;14000;52.056;8.510;2023-08-08T06:41:12;14.70;99.90
26278;DHT22;14000;52.056;8.510;2023-08-08T06:43:38;14.70;99.90
26278;DHT22;14000;52.056;8.510;2023-08-08T06:46:04;14.80;99.90
26278;DHT22;14000;52.056;8.510;2023-08-08T06:48:30;14.80;99.90
26278;DHT22;14000;52.056;8.510;2023-08-08T06:50:55;14.90;99.90
26278;DHT22;14000;52.056;8.510;2023-08-08T06:53:21;14.90;99.90
26278;DHT22;14000;52.056;8.510;2023-08-08T06:55:47;15.00;99.90
26278;DHT22;14000;52.056;8.510;2023-08-08T06:58:12;15.00;99.90
26278;DHT22;14000;52.056;8.510;2023-08-08T07:00:38;15.10;99.90
26278;DHT22;14000;52.056;8.510;2023-08-08T07:03:04;15.10;99.90
26278;DHT22;14000;52.056;8.510;2023-08-08T07:05:29;15.00;99.90
26278;DHT22;14000;52.056;8.510;2023-08-08T07:07:55;15.10;99.90
26278;DHT22;14000;52.056;8.510;2023-08-08T07:10:20;15.10;99.90
26278;DHT22;14000;52.056;8.510;2023-08-08T07:12:46;15.20;99.90
26278;DHT22;14000;52.056;8.510;2023-08-08T07:15:12;15.20;99.90
26278;DHT22;14000;52.056;8.510;2023-08-08T07:17:38;15.20;99.90
26278;DHT22;14000;52.056;8.510;2023-08-08T07:20:04;15.20;99.90
26278;DHT22;14000;52.056;8.510;2023-08-08T07:22:31;15.20;99.90
26278;DHT22;14000;52.056;8.510;2023-08-08T07:24:57;15.30;99.90
26278;DHT22;14000;52.056;8.510;2023-08-08T07:27:23;15.20;99.90
26278;DHT22;14000;52.056;8.510;2023-08-08T07:29:49;15.10;99.90
26278;DHT22;14000;52.056;8.510;2023-08-08T07:32:14;15.10;99.90
26278;DHT22;14000;52.056;8.510;2023-08-08T07:34:40;15.10;99.90
26278;DHT22;14000;52.056;8.510;2023-08-08T07:37:05;15.10;99.90
26278;DHT22;14000;52.056;8.510;2023-08-08T07:39:31;15.10;99.90
26278;DHT22;14000;52.056;8.510;2023-08-08T07:41:57;15.10;99.90
26278;DHT22;14000;52.056;8.510;2023-08-08T07:44:22;15.20;99.90
26278;DHT22;14000;52.056;8.510;2023-08-08T07:46:48;15.30;99.90
26278;DHT22;14000;52.056;8.510;2023-08-08T07:49:14;15.30;99.90
26278;DHT22;14000;52.056;8.510;2023-08-08T07:51:40;15.30;99.90
26278;DHT22;14000;52.056;8.510;2023-08-08T07:54:05;15.30;99.90
26278;DHT22;14000;52.056;8.510;2023-08-08T07:56:34;15.40;99.90
26278;DHT22;14000;52.056;8.510;2023-08-08T07:59:00;15.40;99.90
26278;DHT22;14000;52.056;8.510;2023-08-08T08:01:27;15.50;99.90
26278;DHT22;14000;52.056;8.510;2023-08-08T08:03:53;15.60;99.90
26278;DHT22;14000;52.056;8.510;2023-08-08T08:06:18;15.60;99.90
26278;DHT22;14000;52.056;8.510;2023-08-08T08:08:44;15.70;99.90
26278;DHT22;14000;52.056;8.510;2023-08-08T08:11:09;15.80;99.90
26278;DHT22;14000;52.056;8.510;2023-08-08T08:13:35;15.90;99.90
26278;DHT22;14000;52.056;8.510;2023-08-08T08:16:00;15.90;99.90
26278;DHT22;14000;52.056;8.510;2023-08-08T08:18:26;15.90;99.90
26278;DHT22;14000;52.056;8.510;2023-08-08T08:20:52;15.70;99.90
26278;DHT22;14000;52.056;8.510;2023-08-08T08:23:18;15.60;99.90
26278;DHT22;14000;52.056;8.510;2023-08-08T08:25:43;15.50;99.90
26278;DHT22;14000;52.056;8.510;2023-08-08T08:28:09;15.40;99.90
26278;DHT22;14000;52.056;8.510;2023-08-08T08:30:34;15.20;99.90
26278;DHT22;14000;52.056;8.510;2023-08-08T08:33:02;15.10;99.90
26278;DHT22;14000;52.056;8.510;2023-08-08T08:35:29;14.90;99.90
26278;DHT22;14000;52.056;8.510;2023-08-08T08:37:55;14.90;99.90
26278;DHT22;14000;52.056;8.510;2023-08-08T08:40:20;15.00;99.90
26278;DHT22;14000;52.056;8.510;2023-08-08T08:42:47;15.10;99.90
26278;DHT22;14000;52.056;8.510;2023-08-08T08:45:14;15.30;99.90
26278;DHT22;14000;52.056;8.510;2023-08-08T08:47:41;15.40;99.90
26278;DHT22;14000;52.056;8.510;2023-08-08T08:50:08;15.60;99.90
26278;DHT22;14000;52.056;8.510;2023-08-08T08:52:34;15.60;99.90
26278;DHT22;14000;52.056;8.510;2023-08-08T08:55:00;15.50;99.90
26278;DHT22;14000;52.056;8.510;2023-08-08T08:57:27;15.50;99.90
26278;DHT22;14000;52.056;8.510;2023-08-08T08:59:54;15.50;99.90
26278;DHT22;14000;52.056;8.510;2023-08-08T09:02:19;15.50;99.90
26278;DHT22;14000;52.056;8.510;2023-08-08T09:04:46;15.30;99.90
26278;DHT22;14000;52.056;8.510;2023-08-08T09:07:12;15.10;99.90
26278;DHT22;14000;52.056;8.510;2023-08-08T09:09:38;14.80;99.90
26278;DHT22;14000;52.056;8.510;2023-08-08T09:12:05;14.70;99.90
26278;DHT22;14000;52.056;8.510;2023-08-08T09:14:30;14.60;99.90
26278;DHT22;14000;52.056;8.510;2023-08-08T09:16:56;14.60;99.90
26278;DHT22;14000;52.056;8.510;2023-08-08T09:19:23;14.60;99.90
26278;DHT22;14000;52.056;8.510;2023-08-08T09:21:50;14.70;99.90
26278;DHT22;14000;52.056;8.510;2023-08-08T09:24:17;14.80;99.90
26278;DHT22;14000;52.056;8.510;2023-08-08T09:26:43;15.00;99.90
26278;DHT22;14000;52.056;8.510;2023-08-08T09:29:11;15.20;99.90
26278;DHT22;14000;52.056;8.510;2023-08-08T09:31:37;15.60;99.90
26278;DHT22;14000;52.056;8.510;2023-08-08T09:34:04;15.50;99.90
26278;DHT22;14000;52.056;8.510;2023-08-08T09:36:30;15.60;99.90
26278;DHT22;14000;52.056;8.510;2023-08-08T09:38:56;15.50;99.90
26278;DHT22;14000;52.056;8.510;2023-08-08T09:41:23;15.60;99.90
26278;DHT22;14000;52.056;8.510;2023-08-08T09:43:50;15.70;99.90
26278;DHT22;14000;52.056;8.510;2023-08-08T09:46:18;15.70;99.90
26278;DHT22;14000;52.056;8.510;2023-08-08T09:48:44;15.70;99.90
26278;DHT22;14000;52.056;8.510;2023-08-08T09:51:10;15.90;99.90
26278;DHT22;14000;52.056;8.510;2023-08-08T09:53:36;16.10;99.90
26278;DHT22;14000;52.056;8.510;2023-08-08T09:56:03;16.20;99.90
26278;DHT22;14000;52.056;8.510;2023-08-08T09:58:29;16.10;99.90
26278;DHT22;14000;52.056;8.510;2023-08-08T10:00:55;16.10;99.90
26278;DHT22;14000;52.056;8.510;2023-08-08T10:03:21;16.10;99.90
26278;DHT22;14000;52.056;8.510;2023-08-08T10:05:47;16.20;99.90
26278;DHT22;14000;52.056;8.510;2023-08-08T10:08:15;16.20;99.90
26278;DHT22;14000;52.056;8.510;2023-08-08T10:10:44;16.30;99.90
26278;DHT22;14000;52.056;8.510;2023-08-08T10:13:10;16.50;99.90
26278;DHT22;14000;52.056;8.510;2023-08-08T10:15:39;16.70;99.90
26278;DHT22;14000;52.056;8.510;2023-08-08T10:18:06;16.80;99.90
26278;DHT22;14000;52.056;8.510;2023-08-08T10:20:32;16.90;99.90
26278;DHT22;14000;52.056;8.510;2023-08-08T10:23:02;17.00;99.90
26278;DHT22;14000;52.056;8.510;2023-08-08T10:25:30;17.00;99.90
26278;DHT22;14000;52.056;8.510;2023-08-08T10:28:09;17.10;99.90
26278;DHT22;14000;52.056;8.510;2023-08-08T10:30:46;17.30;99.90
26278;DHT22;14000;52.056;8.510;2023-08-08T10:33:24;17.30;99.90
26278;DHT22;14000;52.056;8.510;2023-08-08T10:36:04;17.40;99.90
26278;DHT22;14000;52.056;8.510;2023-08-08T10:38:49;17.80;99.90
26278;DHT22;14000;52.056;8.510;2023-08-08T10:41:20;17.70;99.90
26278;DHT22;14000;52.056;8.510;2023-08-08T10:43:57;17.70;99.90
26278;DHT22;14000;52.056;8.510;2023-08-08T10:46:28;17.70;99.90
26278;DHT22;14000;52.056;8.510;2023-08-08T10:48:56;17.70;99.90
26278;DHT22;14000;52.056;8.510;2023-08-08T10:51:22;17.70;99.90
26278;DHT22;14000;52.056;8.510;2023-08-08T10:53:51;17.50;99.90
26278;DHT22;14000;52.056;8.510;2023-08-08T10:56:18;17.40;99.90
26278;DHT22;14000;52.056;8.510;2023-08-08T10:58:48;17.20;99.90
26278;DHT22;14000;52.056;8.510;2023-08-08T11:01:14;17.20;99.90
26278;DHT22;14000;52.056;8.510;2023-08-08T11:03:42;17.20;99.90
26278;DHT22;14000;52.056;8.510;2023-08-08T11:06:09;17.20;99.90
26278;DHT22;14000;52.056;8.510;2023-08-08T11:08:36;17.30;99.90
26278;DHT22;14000;52.056;8.510;2023-08-08T11:11:04;17.50;99.90
26278;DHT22;14000;52.056;8.510;2023-08-08T11:13:31;17.50;99.90
26278;DHT22;14000;52.056;8.510;2023-08-08T11:15:57;17.60;99.90
26278;DHT22;14000;52.056;8.510;2023-08-08T11:18:23;17.80;99.90
26278;DHT22;14000;52.056;8.510;2023-08-08T11:20:49;17.90;99.90
26278;DHT22;14000;52.056;8.510;2023-08-08T11:23:15;18.10;99.90
26278;DHT22;14000;52.056;8.510;2023-08-08T11:25:44;18.30;99.90
26278;DHT22;14000;52.056;8.510;2023-08-08T11:28:10;18.40;99.90
26278;DHT22;14000;52.056;8.510;2023-08-08T11:30:45;18.60;99.90
26278;DHT22;14000;52.056;8.510;2023-08-08T11:33:14;19.10;99.90
26278;DHT22;14000;52.056;8.510;2023-08-08T11:35:44;18.90;99.90
26278;DHT22;14000;52.056;8.510;2023-08-08T11:38:12;18.70;99.90
26278;DHT22;14000;52.056;8.510;2023-08-08T11:40:38;18.40;99.90
26278;DHT22;14000;52.056;8.510;2023-08-08T11:43:03;18.30;99.90
26278;DHT22;14000;52.056;8.510;2023-08-08T11:45:31;18.30;99.90
26278;DHT22;14000;52.056;8.510;2023-08-08T11:47:56;18.30;99.90
26278;DHT22;14000;52.056;8.510;2023-08-08T11:50:24;18.30;99.90
26278;DHT22;14000;52.056;8.510;2023-08-08T11:52:51;18.50;99.90
26278;DHT22;14000;52.056;8.510;2023-08-08T11:55:18;19.10;99.90
26278;DHT22;14000;52.056;8.510;2023-08-08T11:57:48;19.00;99.90
26278;DHT22;14000;52.056;8.510;2023-08-08T12:00:14;18.80;99.90
26278;DHT22;14000;52.056;8.510;2023-08-08T12:02:41;18.50;99.90
26278;DHT22;14000;52.056;8.510;2023-08-08T12:05:09;18.20;99.90
26278;DHT22;14000;52.056;8.510;2023-08-08T12:07:35;18.00;99.90
26278;DHT22;14000;52.056;8.510;2023-08-08T12:10:03;18.30;99.90
26278;DHT22;14000;52.056;8.510;2023-08-08T12:12:31;18.90;99.90
26278;DHT22;14000;52.056;8.510;2023-08-08T12:14:57;19.10;99.90
26278;DHT22;14000;52.056;8.510;2023-08-08T12:17:23;19.10;99.90
26278;DHT22;14000;52.056;8.510;2023-08-08T12:19:49;19.10;99.90
26278;DHT22;14000;52.056;8.510;2023-08-08T12:22:14;19.00;99.90
26278;DHT22;14000;52.056;8.510;2023-08-08T12:24:40;18.80;99.90
26278;DHT22;14000;52.056;8.510;2023-08-08T12:27:06;18.90;99.90
26278;DHT22;14000;52.056;8.510;2023-08-08T12:29:32;18.90;99.90
26278;DHT22;14000;52.056;8.510;2023-08-08T12:31:57;18.90;99.90
26278;DHT22;14000;52.056;8.510;2023-08-08T12:34:23;18.80;99.90
26278;DHT22;14000;52.056;8.510;2023-08-08T12:36:48;19.10;99.90
26278;DHT22;14000;52.056;8.510;2023-08-08T12:39:14;19.30;99.90
26278;DHT22;14000;52.056;8.510;2023-08-08T12:41:40;19.30;99.90
26278;DHT22;14000;52.056;8.510;2023-08-08T12:44:06;19.10;99.90
26278;DHT22;14000;52.056;8.510;2023-08-08T12:46:33;19.30;99.90
26278;DHT22;14000;52.056;8.510;2023-08-08T12:48:59;19.40;99.90
26278;DHT22;14000;52.056;8.510;2023-08-08T12:51:24;19.60;99.90
26278;DHT22;14000;52.056;8.510;2023-08-08T12:53:50;19.70;99.90
26278;DHT22;14000;52.056;8.510;2023-08-08T12:56:15;19.90;99.90
26278;DHT22;14000;52.056;8.510;2023-08-08T12:58:41;20.00;99.90
26278;DHT22;14000;52.056;8.510;2023-08-08T13:01:06;20.20;99.90
26278;DHT22;14000;52.056;8.510;2023-08-08T13:03:33;20.50;99.90
26278;DHT22;14000;52.056;8.510;2023-08-08T13:06:00;20.50;99.90
26278;DHT22;14000;52.056;8.510;2023-08-08T13:08:25;20.20;99.90
26278;DHT22;14000;52.056;8.510;2023-08-08T13:10:51;19.90;99.90
26278;DHT22;14000;52.056;8.510;2023-08-08T13:13:16;19.70;99.90
26278;DHT22;14000;52.056;8.510;2023-08-08T13:15:42;19.50;99.90
26278;DHT22;14000;52.056;8.510;2023-08-08T13:18:08;19.20;99.90
26278;DHT22;14000;52.056;8.510;2023-08-08T13:20:34;19.00;99.90
26278;DHT22;14000;52.056;8.510;2023-08-08T13:23:00;18.70;99.90
26278;DHT22;14000;52.056;8.510;2023-08-08T13:25:25;18.50;99.90
26278;DHT22;14000;52.056;8.510;2023-08-08T13:27:51;18.50;99.90
26278;DHT22;14000;52.056;8.510;2023-08-08T13:30:16;18.50;99.90
26278;DHT22;14000;52.056;8.510;2023-08-08T13:32:42;18.50;99.90
26278;DHT22;14000;52.056;8.510;2023-08-08T13:35:08;18.60;99.90
26278;DHT22;14000;52.056;8.510;2023-08-08T13:37:34;18.80;99.90
26278;DHT22;14000;52.056;8.510;2023-08-08T13:39:59;18.90;99.90
26278;DHT22;14000;52.056;8.510;2023-08-08T13:42:25;19.00;99.90
26278;DHT22;14000;52.056;8.510;2023-08-08T13:44:50;19.30;99.90
26278;DHT22;14000;52.056;8.510;2023-08-08T13:47:16;19.70;99.90
26278;DHT22;14000;52.056;8.510;2023-08-08T13:49:41;20.10;99.90
26278;DHT22;14000;52.056;8.510;2023-08-08T13:52:08;20.50;99.90
26278;DHT22;14000;52.056;8.510;2023-08-08T13:54:33;20.60;99.90
26278;DHT22;14000;52.056;8.510;2023-08-08T13:56:59;20.50;99.90
26278;DHT22;14000;52.056;8.510;2023-08-08T13:59:25;20.60;99.90
26278;DHT22;14000;52.056;8.510;2023-08-08T14:01:52;20.50;99.90
26278;DHT22;14000;52.056;8.510;2023-08-08T14:04:17;20.30;99.90
26278;DHT22;14000;52.056;8.510;2023-08-08T14:06:43;20.00;99.90
26278;DHT22;14000;52.056;8.510;2023-08-08T14:09:08;19.80;99.90
26278;DHT22;14000;52.056;8.510;2023-08-08T14:11:34;19.60;99.90
26278;DHT22;14000;52.056;8.510;2023-08-08T14:14:00;19.50;99.90
26278;DHT22;14000;52.056;8.510;2023-08-08T14:16:25;19.50;99.90
26278;DHT22;14000;52.056;8.510;2023-08-08T14:18:51;19.50;99.90
26278;DHT22;14000;52.056;8.510;2023-08-08T14:21:17;19.70;99.90
26278;DHT22;14000;52.056;8.510;2023-08-08T14:23:42;20.00;99.90
26278;DHT22;14000;52.056;8.510;2023-08-08T14:26:09;20.10;99.90
26278;DHT22;14000;52.056;8.510;2023-08-08T14:28:35;19.80;99.90
26278;DHT22;14000;52.056;8.510;2023-08-08T14:31:00;19.80;99.90
26278;DHT22;14000;52.056;8.510;2023-08-08T14:33:27;19.80;99.90
26278;DHT22;14000;52.056;8.510;2023-08-08T14:35:53;19.70;99.90
26278;DHT22;14000;52.056;8.510;2023-08-08T14:38:23;19.70;99.90
26278;DHT22;14000;52.056;8.510;2023-08-08T14:40:48;20.10;99.90
26278;DHT22;14000;52.056;8.510;2023-08-08T14:43:14;20.40;99.90
26278;DHT22;14000;52.056;8.510;2023-08-08T14:45:39;20.70;99.90
26278;DHT22;14000;52.056;8.510;2023-08-08T14:48:05;20.80;99.90
26278;DHT22;14000;52.056;8.510;2023-08-08T14:50:32;20.70;99.90
26278;DHT22;14000;52.056;8.510;2023-08-08T14:52:57;20.50;99.90
26278;DHT22;14000;52.056;8.510;2023-08-08T14:55:23;20.40;99.90
26278;DHT22;14000;52.056;8.510;2023-08-08T14:57:48;20.20;99.90
26278;DHT22;14000;52.056;8.510;2023-08-08T15:00:14;19.90;99.90
26278;DHT22;14000;52.056;8.510;2023-08-08T15:02:40;19.70;99.90
26278;DHT22;14000;52.056;8.510;2023-08-08T15:05:06;19.70;99.90
26278;DHT22;14000;52.056;8.510;2023-08-08T15:07:32;19.70;99.90
26278;DHT22;14000;52.056;8.510;2023-08-08T15:09:57;19.60;99.90
26278;DHT22;14000;52.056;8.510;2023-08-08T15:12:23;19.50;99.90
26278;DHT22;14000;52.056;8.510;2023-08-08T15:14:48;19.50;99.90
26278;DHT22;14000;52.056;8.510;2023-08-08T15:17:16;19.50;99.90
26278;DHT22;14000;52.056;8.510;2023-08-08T15:19:42;19.40;99.90
26278;DHT22;14000;52.056;8.510;2023-08-08T15:22:08;19.30;99.90
26278;DHT22;14000;52.056;8.510;2023-08-08T15:24:33;19.10;99.90
26278;DHT22;14000;52.056;8.510;2023-08-08T15:27:02;19.00;99.90